Time;durP1;ratioP1;P1;durP2;ratioP2;P2;SDS_P1;SDS_P2;PMS_P1;PMS_P2;Temp;Humidity;BMP_temperature;BMP_pressure;BME280_temperature;BME280_humidity;BME280_pressure;Samples;Min_cycle;Max_cycle;Signal;HPM_P1;HPM_P2
2021/01/27 00:01:13;;;;;;;14.80;8.45;;;;;;;0.65;70.34;98741.34;128153;1107;22895;-61
2021/01/27 00:03:41;;;;;;;13.40;7.95;;;;;;;0.67;70.22;98747.31;128887;1105;22965;-62
2021/01/27 00:06:09;;;;;;;14.47;8.67;;;;;;;0.66;69.92;98738.45;128865;1105;22852;-62
2021/01/27 00:08:36;;;;;;;14.55;8.55;;;;;;;0.66;69.13;98740.31;129120;1105;22983;-62
2021/01/27 00:11:04;;;;;;;14.73;8.33;;;;;;;0.64;69.63;98743.20;128898;1105;22826;-62
2021/01/27 00:13:31;;;;;;;16.20;9.10;;;;;;;0.64;70.12;98742.38;129155;1106;22864;-62
2021/01/27 00:15:58;;;;;;;14.70;9.15;;;;;;;0.64;69.71;98748.56;129102;1105;23617;-61
2021/01/27 00:18:26;;;;;;;24.85;11.75;;;;;;;0.64;69.29;98745.06;128971;1105;22854;-62
2021/01/27 00:22:11;;;;;;;15.45;9.15;;;;;;;0.65;69.82;98746.70;124206;1111;23100;-61
2021/01/27 00:24:39;;;;;;;25.60;11.60;;;;;;;0.63;69.13;98748.77;124120;1110;27680;-60
2021/01/27 00:27:06;;;;;;;22.80;10.63;;;;;;;0.62;70.20;98752.48;128188;1112;23003;-61
2021/01/27 00:29:34;;;;;;;19.25;9.75;;;;;;;0.61;69.74;98743.63;128354;1111;22847;-61
2021/01/27 00:32:01;;;;;;;19.85;10.05;;;;;;;0.62;70.37;98736.41;128178;1111;22887;-61
2021/01/27 00:34:29;;;;;;;15.40;8.30;;;;;;;0.63;70.23;98732.69;128280;1111;22910;-61
2021/01/27 00:36:56;;;;;;;17.20;8.80;;;;;;;0.62;70.05;98731.86;128239;1112;22830;-61
2021/01/27 00:39:23;;;;;;;16.67;9.70;;;;;;;0.62;69.74;98720.32;128306;1111;23675;-61
2021/01/27 00:41:51;;;;;;;39.07;14.57;;;;;;;0.61;70.71;98727.54;128307;1112;23018;-62
2021/01/27 00:44:19;;;;;;;23.60;10.60;;;;;;;0.61;70.65;98729.39;128237;1111;23640;-61
2021/01/27 00:46:47;;;;;;;41.53;14.17;;;;;;;0.59;70.58;98723.42;128299;1111;23571;-61
2021/01/27 00:49:15;;;;;;;45.77;16.63;;;;;;;0.57;69.65;98722.84;128192;1110;22840;-61
2021/01/27 00:51:42;;;;;;;26.07;11.30;;;;;;;0.54;70.67;98728.62;128318;1111;23822;-62
2021/01/27 00:54:10;;;;;;;18.70;9.55;;;;;;;0.53;70.81;98722.44;128236;1111;23026;-61
2021/01/27 00:56:37;;;;;;;21.80;10.00;;;;;;;0.53;70.17;98717.08;128332;1111;23680;-62
2021/01/27 00:59:05;;;;;;;18.25;9.60;;;;;;;0.53;70.84;98718.93;128138;1110;25120;-62
2021/01/27 01:01:37;;;;;;;41.90;15.55;;;;;;;0.54;70.44;98717.90;128327;1112;23013;-61
2021/01/27 01:04:06;;;;;;;21.70;10.55;;;;;;;0.55;70.82;98724.91;128165;1111;22886;-62
2021/01/27 01:06:33;;;;;;;21.85;10.05;;;;;;;0.52;70.67;98718.11;125844;1111;23054;-69
2021/01/27 01:09:01;;;;;;;20.35;9.85;;;;;;;0.52;69.86;98719.97;128160;1112;22942;-70
2021/01/27 01:11:29;;;;;;;47.50;16.50;;;;;;;0.50;70.78;98714.81;128275;1110;23734;-70
2021/01/27 01:13:57;;;;;;;19.60;10.57;;;;;;;0.49;70.73;98710.48;128177;1111;23773;-70
2021/01/27 01:16:24;;;;;;;21.45;11.35;;;;;;;0.49;70.81;98712.34;128321;1111;23118;-70
2021/01/27 01:18:52;;;;;;;26.10;13.25;;;;;;;0.48;69.75;98708.02;128229;1111;22938;-70
2021/01/27 01:21:19;;;;;;;19.40;9.75;;;;;;;0.45;70.08;98703.08;128312;1111;22909;-68
2021/01/27 01:23:47;;;;;;;23.10;10.90;;;;;;;0.42;70.67;98704.35;128242;1111;22899;-68
2021/01/27 01:26:14;;;;;;;17.20;9.00;;;;;;;0.40;69.88;98705.59;128355;1112;22847;-71
2021/01/27 01:28:42;;;;;;;18.13;10.23;;;;;;;0.38;71.23;98716.52;128282;1112;22934;-69
2021/01/27 01:31:10;;;;;;;18.35;9.50;;;;;;;0.38;70.04;98707.66;128115;1111;23028;-68
2021/01/27 01:33:37;;;;;;;16.53;9.73;;;;;;;0.38;70.34;98695.09;128327;1112;23563;-68
2021/01/27 01:36:05;;;;;;;25.30;11.35;;;;;;;0.35;70.85;98690.97;128219;1112;23692;-69
2021/01/27 01:38:32;;;;;;;20.87;10.17;;;;;;;0.33;70.82;98687.67;128308;1111;22897;-71
2021/01/27 01:41:00;;;;;;;19.35;10.50;;;;;;;0.34;71.23;98683.14;128234;1111;22855;-69
2021/01/27 01:43:35;;;;;;;21.00;11.35;;;;;;;0.32;69.87;98685.20;128331;1112;22837;-68
2021/01/27 01:46:16;;;;;;;20.40;11.27;;;;;;;0.31;70.18;98684.38;128207;1111;22910;-68
2021/01/27 01:48:56;;;;;;;31.83;14.17;;;;;;;0.31;71.23;98676.34;128304;1111;22838;-68
2021/01/27 01:51:27;;;;;;;22.17;12.57;;;;;;;0.31;70.66;98678.20;128175;1112;22900;-70
2021/01/27 01:53:58;;;;;;;23.30;11.17;;;;;;;0.30;70.92;98680.06;128341;1112;22880;-69
2021/01/27 01:56:27;;;;;;;23.17;11.27;;;;;;;0.31;70.49;98676.34;128228;1111;22911;-70
2021/01/27 01:58:55;;;;;;;22.90;13.15;;;;;;;0.31;71.15;98676.34;128241;1112;23026;-70
2021/01/27 02:01:22;;;;;;;28.23;13.73;;;;;;;0.32;70.85;98666.45;127877;1112;22869;-70
2021/01/27 02:03:50;;;;;;;27.93;13.73;;;;;;;0.30;71.40;98671.20;128315;1112;22909;-70
2021/01/27 02:06:18;;;;;;;25.33;13.60;;;;;;;0.31;70.47;98670.16;128177;1112;23833;-70
2021/01/27 02:08:51;;;;;;;26.90;12.60;;;;;;;0.33;71.33;98663.56;128297;1111;23645;-70
2021/01/27 02:11:26;;;;;;;25.80;12.90;;;;;;;0.33;71.25;98662.74;128186;1111;22877;-70
2021/01/27 02:14:03;;;;;;;20.53;11.70;;;;;;;0.31;71.40;98665.63;127984;1112;23007;-70
2021/01/27 02:17:15;;;;;;;28.33;13.87;;;;;;;0.32;71.30;98672.63;128076;1112;23649;-70
2021/01/27 02:19:52;;;;;;;38.70;17.85;;;;;;;0.32;70.55;98672.63;128298;1112;23276;-70
2021/01/27 02:22:31;;;;;;;24.57;12.27;;;;;;;0.30;71.11;98668.52;128143;1111;24418;-70
2021/01/27 02:25:36;;;;;;;28.30;13.10;;;;;;;0.25;70.44;98669.17;128307;1111;22851;-70
2021/01/27 02:28:04;;;;;;;23.27;11.30;;;;;;;0.22;71.32;98672.27;128165;1111;22895;-70
2021/01/27 02:30:47;;;;;;;23.63;12.63;;;;;;;0.22;70.90;98666.09;128008;1111;22897;-70
2021/01/27 02:33:56;;;;;;;22.65;11.00;;;;;;;0.20;71.03;98660.95;128078;1111;22850;-70
2021/01/27 02:36:25;;;;;;;17.90;9.93;;;;;;;0.17;70.73;98663.22;125984;1115;23071;-69
2021/01/27 02:39:18;;;;;;;18.35;10.55;;;;;;;0.17;71.61;98660.54;127826;1115;22869;-70
2021/01/27 02:42:05;;;;;;;25.05;12.50;;;;;;;0.17;71.33;98664.05;127850;1115;22938;-70
2021/01/27 02:45:04;;;;;;;18.40;10.30;;;;;;;0.18;72.46;98660.33;127973;1115;22870;-70
2021/01/27 02:47:48;;;;;;;21.60;10.63;;;;;;;0.19;71.48;98661.16;127595;1115;22890;-69
2021/01/27 02:50:21;;;;;;;18.37;10.80;;;;;;;0.20;71.37;98663.62;127804;1115;22887;-70
2021/01/27 02:52:51;;;;;;;19.60;10.13;;;;;;;0.18;71.60;98660.33;127807;1114;22963;-69
2021/01/27 02:55:32;;;;;;;17.70;10.13;;;;;;;0.17;70.98;98666.72;127930;1115;23035;-70
2021/01/27 02:58:06;;;;;;;20.70;11.67;;;;;;;0.17;71.65;98671.25;127790;1114;23014;-70
2021/01/27 03:00:36;;;;;;;19.67;10.73;;;;;;;0.17;72.05;98661.36;127933;1115;23062;-70
2021/01/27 03:03:11;;;;;;;20.30;11.00;;;;;;;0.18;72.11;98671.05;127572;1116;22857;-70
2021/01/27 03:05:40;;;;;;;21.13;11.47;;;;;;;0.19;71.50;98675.37;127916;1115;22905;-70
2021/01/27 03:08:15;;;;;;;18.45;10.80;;;;;;;0.16;71.76;98666.93;127838;1114;22878;-70
2021/01/27 03:10:46;;;;;;;19.20;11.15;;;;;;;0.16;71.90;98670.43;127965;1115;22859;-71
2021/01/27 03:13:13;;;;;;;18.15;11.30;;;;;;;0.14;71.64;98659.13;127992;1112;22938;-69
2021/01/27 03:15:42;;;;;;;22.57;12.73;;;;;;;0.17;72.21;98664.05;127420;1111;23499;-69
2021/01/27 03:18:15;;;;;;;23.93;12.77;;;;;;;0.18;71.95;98660.33;128212;1111;22998;-70
2021/01/27 03:20:42;;;;;;;18.20;11.75;;;;;;;0.19;72.04;98653.94;128137;1112;22946;-70
2021/01/27 03:23:26;;;;;;;20.53;11.57;;;;;;;0.19;71.73;98651.27;128020;1112;22870;-70
2021/01/27 03:26:08;;;;;;;25.37;13.83;;;;;;;0.20;71.60;98646.73;128281;1112;22907;-70
2021/01/27 03:28:39;;;;;;;19.65;11.90;;;;;;;0.19;71.96;98640.55;127903;1112;22871;-69
2021/01/27 03:31:06;;;;;;;23.15;13.15;;;;;;;0.18;72.53;98638.08;128001;1112;23142;-70
2021/01/27 03:33:54;;;;;;;28.05;15.25;;;;;;;0.18;72.56;98632.72;128281;1112;22921;-70
2021/01/27 03:36:22;;;;;;;22.13;13.22;;;;;;;0.19;71.88;98635.20;128039;1112;22880;-70
2021/01/27 03:38:50;;;;;;;21.40;12.40;;;;;;;0.19;72.91;98629.02;128037;1112;22823;-70
2021/01/27 03:41:22;;;;;;;25.83;14.27;;;;;;;0.20;73.59;98634.16;127925;1111;23014;-69
2021/01/27 03:44:00;;;;;;;29.33;14.43;;;;;;;0.21;73.01;98634.98;128024;1112;22877;-70
2021/01/27 03:46:43;;;;;;;31.80;16.13;;;;;;;0.22;72.69;98636.63;125716;1112;26465;-69
2021/01/27 03:49:15;;;;;;;26.00;13.90;;;;;;;0.20;72.80;98642.20;123940;1112;24723;-69
2021/01/27 03:51:47;;;;;;;26.10;14.30;;;;;;;0.20;72.92;98642.20;128164;1110;22917;-70
2021/01/27 03:54:16;;;;;;;24.40;13.73;;;;;;;0.21;72.52;98646.52;128053;1111;22903;-70
2021/01/27 03:56:52;;;;;;;26.97;12.97;;;;;;;0.20;72.43;98641.38;128190;1112;22897;-70
2021/01/27 03:59:19;;;;;;;23.23;12.90;;;;;;;0.20;73.19;98647.55;128271;1112;22920;-70
2021/01/27 04:01:52;;;;;;;22.45;13.00;;;;;;;0.21;73.33;98649.20;128204;1111;23217;-70
2021/01/27 04:04:19;;;;;;;24.43;13.70;;;;;;;0.21;73.37;98657.23;128034;1112;22990;-70
2021/01/27 04:06:47;;;;;;;26.80;15.83;;;;;;;0.21;72.53;98653.73;128161;1112;22866;-70
2021/01/27 04:09:15;;;;;;;27.27;14.90;;;;;;;0.21;73.75;98643.02;128273;1112;23062;-69
2021/01/27 04:11:50;;;;;;;24.50;15.20;;;;;;;0.22;73.50;98647.34;128150;1112;23004;-70
2021/01/27 04:14:18;;;;;;;24.25;13.95;;;;;;;0.21;73.87;98651.87;128226;1111;22967;-70
2021/01/27 04:16:45;;;;;;;24.47;15.27;;;;;;;0.22;72.96;98645.48;128240;1111;22990;-70
2021/01/27 04:19:13;;;;;;;25.87;16.07;;;;;;;0.22;72.46;98642.81;128334;1111;22988;-70
2021/01/27 04:21:40;;;;;;;25.93;14.93;;;;;;;0.23;72.62;98652.49;128177;1110;22911;-70
2021/01/27 04:24:07;;;;;;;29.93;16.70;;;;;;;0.24;73.70;98653.31;128329;1111;22854;-70
2021/01/27 04:26:35;;;;;;;27.15;17.25;;;;;;;0.24;72.79;98655.99;128166;1111;23320;-69
2021/01/27 04:29:03;;;;;;;34.65;18.50;;;;;;;0.25;72.75;98660.32;128305;1112;24719;-70
2021/01/27 04:31:31;;;;;;;31.60;18.20;;;;;;;0.26;72.73;98662.78;128224;1111;22845;-70
2021/01/27 04:34:00;;;;;;;36.63;19.53;;;;;;;0.24;73.78;98664.03;128285;1112;22894;-70
2021/01/27 04:36:29;;;;;;;36.25;20.40;;;;;;;0.23;73.69;98663.20;128197;1111;23142;-70
2021/01/27 04:38:56;;;;;;;36.83;19.27;;;;;;;0.23;73.95;98660.53;128299;1111;22940;-69
2021/01/27 04:41:24;;;;;;;33.53;19.10;;;;;;;0.23;73.43;98665.89;128155;1112;22889;-69
2021/01/27 04:43:51;;;;;;;53.60;32.15;;;;;;;0.22;73.91;98660.73;128306;1110;22919;-70
2021/01/27 04:46:29;;;;;;;54.53;36.00;;;;;;;0.20;73.07;98666.30;128291;1112;23666;-61
2021/01/27 04:49:17;;;;;;;45.20;26.70;;;;;;;0.19;74.12;98663.84;128228;1112;22855;-61
2021/01/27 04:52:13;;;;;;;26.10;16.25;;;;;;;0.17;72.88;98661.36;128201;1111;22985;-61
2021/01/27 04:55:19;;;;;;;32.47;17.50;;;;;;;0.15;73.82;98660.75;128281;1111;22868;-61
2021/01/27 04:58:07;;;;;;;26.10;14.30;;;;;;;0.16;72.98;98661.58;128158;1111;22818;-61
2021/01/27 05:01:01;;;;;;;32.95;18.45;;;;;;;0.16;73.72;98661.58;128229;1112;23415;-61
2021/01/27 05:03:35;;;;;;;27.93;14.83;;;;;;;0.15;73.96;98666.11;128183;1111;24232;-61
2021/01/27 05:06:04;;;;;;;22.57;13.57;;;;;;;0.16;74.50;98667.75;128315;1112;23107;-61
2021/01/27 05:08:34;;;;;;;21.40;12.83;;;;;;;0.18;74.43;98668.37;127874;1111;23894;-61
2021/01/27 05:11:05;;;;;;;24.05;14.15;;;;;;;0.18;73.77;98660.33;127986;1111;24086;-61
2021/01/27 05:13:39;;;;;;;22.63;13.83;;;;;;;0.18;73.03;98665.69;128144;1112;22839;-61
2021/01/27 05:16:08;;;;;;;24.23;13.90;;;;;;;0.18;73.40;98667.55;128259;1111;23879;-61
2021/01/27 05:18:36;;;;;;;24.33;13.83;;;;;;;0.18;73.56;98664.87;128127;1111;22891;-62
2021/01/27 05:21:03;;;;;;;28.30;13.45;;;;;;;0.17;73.35;98669.40;128323;1112;22849;-61
2021/01/27 05:23:30;;;;;;;24.30;13.65;;;;;;;0.20;73.32;98676.20;127950;1110;22839;-61
2021/01/27 05:26:05;;;;;;;24.37;13.90;;;;;;;0.22;73.81;98679.48;128289;1112;22941;-61
2021/01/27 05:28:44;;;;;;;23.40;13.05;;;;;;;0.23;74.14;98691.85;128111;1111;23908;-61
2021/01/27 05:31:12;;;;;;;24.00;14.50;;;;;;;0.22;73.21;98685.67;128090;1112;23464;-61
2021/01/27 05:33:50;;;;;;;25.60;15.15;;;;;;;0.21;73.67;98689.37;128177;1112;22898;-61
2021/01/27 05:36:21;;;;;;;30.43;16.70;;;;;;;0.21;73.36;98697.41;128312;1111;22877;-61
2021/01/27 05:38:48;;;;;;;28.95;16.35;;;;;;;0.22;73.33;98690.20;127893;1112;23027;-61
2021/01/27 05:41:22;;;;;;;31.25;17.80;;;;;;;0.23;73.55;98691.85;128368;1111;23862;-61
2021/01/27 05:43:49;;;;;;;34.00;19.45;;;;;;;0.23;73.27;98700.70;128260;1111;22812;-61
2021/01/27 05:46:27;;;;;;;48.80;23.60;;;;;;;0.24;73.55;98707.72;128306;1111;23136;-61
2021/01/27 05:48:55;;;;;;;64.00;30.00;;;;;;;0.23;74.33;98708.74;128375;1111;22876;-62
2021/01/27 05:51:36;;;;;;;73.27;32.87;;;;;;;0.22;74.52;98709.77;128253;1111;23033;-61
2021/01/27 05:54:24;;;;;;;72.83;33.03;;;;;;;0.18;73.93;98700.52;128194;1112;22915;-61
2021/01/27 05:56:52;;;;;;;70.28;32.95;;;;;;;0.16;74.03;98717.81;125378;1112;26437;-60
2021/01/27 05:59:24;;;;;;;71.70;33.87;;;;;;;0.13;74.17;98713.73;124202;1112;23111;-62
2021/01/27 06:01:52;;;;;;;65.90;31.03;;;;;;;0.09;74.25;98715.17;124161;1111;26421;-61
2021/01/27 06:04:27;;;;;;;56.40;28.45;;;;;;;0.05;73.81;98711.27;128235;1111;22846;-61
2021/01/27 06:06:58;;;;;;;42.40;22.10;;;;;;;0.02;73.97;98717.03;128202;1112;23023;-62
2021/01/27 06:09:41;;;;;;;40.07;22.07;;;;;;;-0.02;75.28;98722.02;128330;1112;22896;-61
2021/01/27 06:12:14;;;;;;;35.87;18.87;;;;;;;-0.04;75.57;98718.72;128186;1112;24179;-62
2021/01/27 06:14:42;;;;;;;36.93;19.40;;;;;;;-0.04;74.54;98718.72;127986;1112;22863;-60
2021/01/27 06:17:29;;;;;;;38.60;18.80;;;;;;;-0.02;75.93;98726.55;128215;1111;24126;-61
2021/01/27 06:20:06;;;;;;;37.98;19.12;;;;;;;0.00;75.32;98725.28;128301;1111;24708;-59
2021/01/27 06:22:50;;;;;;;39.78;20.60;;;;;;;0.02;75.86;98726.92;128161;1112;23115;-60
2021/01/27 06:25:40;;;;;;;39.60;19.30;;;;;;;0.05;76.01;98730.02;128126;1112;22904;-68
2021/01/27 06:28:10;;;;;;;40.30;19.65;;;;;;;0.06;76.09;98720.95;128194;1111;22953;-67
2021/01/27 06:30:43;;;;;;;35.23;16.07;;;;;;;0.07;75.13;98722.59;127876;1111;22855;-67
2021/01/27 06:33:25;;;;;;;31.40;15.90;;;;;;;0.08;75.02;98723.42;128192;1112;22824;-69
2021/01/27 06:35:59;;;;;;;31.80;15.45;;;;;;;0.09;75.45;98719.71;128126;1111;23299;-66
2021/01/27 06:38:45;;;;;;;27.23;15.40;;;;;;;0.11;75.28;98725.69;128247;1110;23137;-66
2021/01/27 06:41:24;;;;;;;31.67;16.97;;;;;;;0.15;75.35;98718.85;128086;1112;22938;-66
2021/01/27 06:44:04;;;;;;;29.50;14.63;;;;;;;0.17;75.43;98724.83;128187;1111;22866;-68
2021/01/27 06:46:38;;;;;;;33.17;17.40;;;;;;;0.19;75.26;98726.27;128101;1112;25935;-67
2021/01/27 06:49:23;;;;;;;31.50;17.03;;;;;;;0.21;75.84;98729.56;128188;1112;23036;-67
2021/01/27 06:51:56;;;;;;;27.00;15.35;;;;;;;0.23;75.76;98722.14;128085;1112;22962;-68
2021/01/27 06:54:35;;;;;;;42.07;19.43;;;;;;;0.27;75.46;98718.02;128283;1111;22839;-68
2021/01/27 06:57:14;;;;;;;49.10;21.43;;;;;;;0.28;76.24;98710.80;128037;1111;22948;-66
2021/01/27 07:00:02;;;;;;;56.80;25.60;;;;;;;0.31;76.20;98713.03;127967;1112;22891;-67
2021/01/27 07:02:35;;;;;;;53.95;25.92;;;;;;;0.31;75.59;98710.35;128095;1111;23071;-67
2021/01/27 07:05:13;;;;;;;53.10;24.45;;;;;;;0.33;76.25;98709.11;128304;1112;23574;-67
2021/01/27 07:07:46;;;;;;;;;;;;;;;0.35;75.96;98717.77;128140;1112;22869;-67
2021/01/27 07:10:33;;;;;;;54.80;25.07;;;;;;;0.34;75.48;98709.94;128296;1111;21440;-68
2021/01/27 07:13:22;;;;;;;65.30;30.67;;;;;;;0.33;76.27;98708.28;128164;1111;22850;-66
2021/01/27 07:16:28;;;;;;;43.80;22.10;;;;;;;0.33;75.26;98711.78;128336;1111;23483;-67
2021/01/27 07:19:14;;;;;;;39.37;20.53;;;;;;;0.33;76.05;98702.93;128077;1111;22983;-67
2021/01/27 07:21:56;;;;;;;36.45;20.20;;;;;;;0.33;75.99;98711.78;128292;1111;22875;-66
2021/01/27 07:24:31;;;;;;;35.20;18.20;;;;;;;0.31;76.20;98713.85;128115;1112;23568;-66
2021/01/27 07:27:12;;;;;;;30.53;16.83;;;;;;;0.30;75.08;98719.42;124942;1113;23341;-58
2021/01/27 07:29:53;;;;;;;30.80;17.60;;;;;;;0.31;75.93;98716.53;128104;1111;22921;-59
2021/01/27 07:32:28;;;;;;;36.67;18.77;;;;;;;0.32;75.05;98718.18;128073;1112;23070;-60
2021/01/27 07:35:02;;;;;;;32.93;17.70;;;;;;;0.33;74.87;98713.64;128177;1112;22992;-60
2021/01/27 07:37:58;;;;;;;24.15;14.35;;;;;;;0.35;75.43;98719.62;128017;1112;22890;-59
2021/01/27 07:40:28;;;;;;;24.50;15.25;;;;;;;0.08;74.90;98684.08;128105;1112;22881;-59
2021/01/27 07:43:25;;;;;;;24.55;15.35;;;;;;;0.28;75.58;98711.63;128275;1112;22865;-59
2021/01/27 07:45:55;;;;;;;24.07;14.43;;;;;;;0.29;74.95;98712.41;127904;1115;23034;-59
2021/01/27 07:49:08;;;;;;;23.73;14.17;;;;;;;0.30;75.12;98712.20;127956;1115;23449;-60
2021/01/27 07:52:00;;;;;;;26.45;14.85;;;;;;;0.33;75.04;98710.97;127949;1115;22945;-59
2021/01/27 07:54:38;;;;;;;28.80;15.40;;;;;;;0.32;75.48;98704.78;127906;1115;22876;-60
2021/01/27 07:57:11;;;;;;;22.63;15.60;;;;;;;0.31;75.75;98713.85;127708;1115;22891;-58
2021/01/27 08:00:07;;;;;;;26.85;15.70;;;;;;;0.34;74.81;98704.58;127831;1114;23701;-59
2021/01/27 08:03:04;;;;;;;28.55;15.45;;;;;;;0.35;75.62;98706.22;127945;1114;23055;-59
2021/01/27 08:05:36;;;;;;;30.67;16.07;;;;;;;0.34;75.02;98713.44;127801;1115;23965;-60
2021/01/27 08:08:08;;;;;;;46.85;24.75;;;;;;;0.19;75.49;98682.58;127634;1115;22861;-59
2021/01/27 08:10:35;;;;;;;38.57;20.80;;;;;;;0.35;74.87;98711.58;127597;1116;22889;-59
2021/01/27 08:13:24;;;;;;;36.63;20.07;;;;;;;0.35;74.85;98708.90;127923;1114;23125;-60
2021/01/27 08:16:13;;;;;;;45.20;23.15;;;;;;;0.35;75.50;98708.90;127775;1115;23014;-60
2021/01/27 08:19:06;;;;;;;49.40;22.70;;;;;;;0.32;74.77;98712.00;127969;1114;22900;-59
2021/01/27 08:21:55;;;;;;;46.20;23.00;;;;;;;0.27;75.16;98715.34;127881;1112;23025;-59
2021/01/27 08:24:37;;;;;;;40.35;21.70;;;;;;;0.28;75.25;98713.48;128351;1110;23016;-59
2021/01/27 08:27:14;;;;;;;41.47;21.37;;;;;;;0.27;75.46;98712.66;128244;1110;22867;-59
2021/01/27 08:29:54;;;;;;;48.77;24.53;;;;;;;0.26;75.22;98711.01;128354;1110;23011;-59
2021/01/27 08:32:23;;;;;;;41.73;19.93;;;;;;;0.28;74.31;98716.16;128093;1111;22860;-59
2021/01/27 08:35:01;;;;;;;80.40;34.25;;;;;;;0.21;74.35;98713.48;128331;1111;22828;-59
2021/01/27 08:37:33;;;;;;;63.23;30.50;;;;;;;0.21;74.30;98709.98;128209;1112;22990;-59
2021/01/27 08:40:14;;;;;;;42.80;18.33;;;;;;;0.20;74.17;98706.48;128330;1110;22853;-59
2021/01/27 08:42:43;;;;;;;62.83;23.40;;;;;;;0.19;73.98;98714.73;128225;1111;22987;-59
2021/01/27 08:45:23;;;;;;;35.83;18.23;;;;;;;0.16;75.00;98702.58;128328;1111;23146;-59
2021/01/27 08:47:57;;;;;;;37.97;18.27;;;;;;;0.21;74.17;98715.34;128199;1110;22904;-59
2021/01/27 08:50:43;;;;;;;41.10;19.50;;;;;;;0.22;74.81;98712.45;128360;1110;22900;-59
2021/01/27 08:53:12;;;;;;;35.33;18.77;;;;;;;0.27;75.00;98709.15;128132;1110;23669;-59
2021/01/27 08:55:43;;;;;;;40.05;18.90;;;;;;;0.28;74.58;98706.27;128266;1112;23415;-59
2021/01/27 08:58:29;;;;;;;30.40;17.20;;;;;;;0.30;74.28;98714.88;128163;1110;23186;-59
2021/01/27 09:01:09;;;;;;;29.27;16.07;;;;;;;0.33;74.24;98713.64;128348;1112;22837;-59
2021/01/27 09:03:39;;;;;;;33.27;16.33;;;;;;;0.37;73.58;98706.02;128188;1110;23689;-60
2021/01/27 09:06:23;;;;;;;32.93;16.17;;;;;;;0.40;74.29;98713.63;128303;1110;22835;-59
2021/01/27 09:08:51;;;;;;;34.67;16.33;;;;;;;0.43;73.69;98702.50;128180;1111;22890;-59
2021/01/27 09:11:18;;;;;;;46.40;21.40;;;;;;;0.47;73.86;98698.33;128273;1111;22956;-59
2021/01/27 09:13:46;;;;;;;39.40;19.40;;;;;;;0.34;73.27;98681.28;128130;1109;22899;-59
2021/01/27 09:16:26;;;;;;;40.20;18.15;;;;;;;0.44;73.44;98701.43;128365;1109;22935;-59
2021/01/27 09:19:01;;;;;;;36.70;17.40;;;;;;;0.46;73.74;98699.36;128238;1109;23978;-59
2021/01/27 09:21:28;;;;;;;41.15;17.35;;;;;;;0.47;72.82;98695.66;128327;1109;22952;-59
2021/01/27 09:24:07;;;;;;;30.77;15.20;;;;;;;0.47;73.90;98706.37;128192;1109;22984;-59
2021/01/27 09:26:46;;;;;;;62.97;26.77;;;;;;;0.45;72.10;98703.08;128302;1109;22878;-59
2021/01/27 09:29:15;;;;;;;38.65;19.10;;;;;;;0.41;72.17;98696.52;128166;1109;22881;-59
2021/01/27 09:31:42;;;;;;;34.87;16.27;;;;;;;0.39;72.85;98704.77;128297;1109;23006;-59
2021/01/27 09:34:36;;;;;;;37.20;18.20;;;;;;;0.39;71.68;98710.12;128197;1108;22845;-59
2021/01/27 09:37:25;;;;;;;33.00;15.00;;;;;;;0.38;71.58;98699.63;128305;1108;22892;-60
2021/01/27 09:39:55;;;;;;;181.13;69.67;;;;;;;0.36;71.27;98707.87;128169;1108;22875;-59
2021/01/27 09:42:29;;;;;;;83.60;38.40;;;;;;;0.35;72.61;98703.55;128319;1109;22906;-59
2021/01/27 09:45:02;;;;;;;30.90;15.90;;;;;;;0.35;71.17;98698.19;128188;1110;22896;-59
2021/01/27 09:47:30;;;;;;;29.13;15.97;;;;;;;0.34;71.45;98704.58;128313;1108;23053;-59
2021/01/27 09:49:58;;;;;;;24.10;14.53;;;;;;;0.37;71.56;98696.13;128230;1108;22893;-59
2021/01/27 09:52:26;;;;;;;36.07;21.00;;;;;;;0.38;71.00;98691.59;128321;1109;22895;-58
2021/01/27 09:55:17;;;;;;;37.83;20.13;;;;;;;0.42;71.69;98687.45;128182;1108;22873;-59
2021/01/27 09:57:44;;;;;;;26.17;14.53;;;;;;;0.44;70.81;98688.03;128301;1108;23667;-59
2021/01/27 10:00:22;;;;;;;32.45;19.45;;;;;;;0.44;71.14;98685.35;128197;1109;22891;-59
2021/01/27 10:02:50;;;;;;;31.87;19.27;;;;;;;0.42;71.21;98682.09;128358;1109;23627;-58
2021/01/27 10:05:34;;;;;;;40.27;21.17;;;;;;;0.41;70.29;98681.27;128250;1109;22979;-59
2021/01/27 10:08:06;;;;;;;33.60;16.67;;;;;;;0.42;71.47;98679.41;128342;1107;23015;-59
2021/01/27 10:10:34;;;;;;;21.90;12.30;;;;;;;0.45;71.08;98676.28;128240;1108;22920;-59
2021/01/27 10:13:01;;;;;;;20.75;14.40;;;;;;;0.48;69.61;98673.18;128339;1108;23596;-59
2021/01/27 10:15:30;;;;;;;19.90;13.13;;;;;;;0.49;70.20;98666.78;128197;1108;23399;-59
2021/01/27 10:18:06;;;;;;;23.27;12.57;;;;;;;0.48;68.45;98657.10;128296;1110;22922;-59
2021/01/27 10:20:36;;;;;;;17.00;9.30;;;;;;;0.45;67.84;98660.20;128221;1108;23055;-59
2021/01/27 10:23:06;;;;;;;16.90;9.40;;;;;;;0.44;68.33;98661.23;128333;1109;23588;-58
2021/01/27 10:25:41;;;;;;;37.20;17.17;;;;;;;0.43;67.99;98664.98;128226;1108;23668;-59
2021/01/27 10:28:12;;;;;;;18.87;10.20;;;;;;;0.42;69.03;98672.20;128272;1109;23786;-59
2021/01/27 10:30:45;;;;;;;22.05;10.95;;;;;;;0.42;68.91;98666.84;128210;1109;22860;-59
2021/01/27 10:33:32;;;;;;;25.13;11.23;;;;;;;0.45;67.14;98677.10;128320;1109;23369;-59
2021/01/27 10:36:30;;;;;;;26.65;11.95;;;;;;;0.43;67.08;98668.48;128209;1109;22902;-59
2021/01/27 10:39:10;;;;;;;28.60;12.25;;;;;;;0.38;67.65;98667.47;128366;1108;22959;-60
2021/01/27 10:41:38;;;;;;;28.47;12.13;;;;;;;0.39;67.54;98669.94;128279;1108;23433;-59
2021/01/27 10:44:24;;;;;;;28.05;11.35;;;;;;;0.40;68.07;98670.77;128354;1108;22851;-59
2021/01/27 10:46:51;;;;;;;31.85;11.90;;;;;;;0.44;67.32;98662.06;128238;1108;24151;-59
2021/01/27 10:49:19;;;;;;;17.55;7.20;;;;;;;0.48;67.73;98655.25;128353;1109;23756;-59
2021/01/27 10:51:46;;;;;;;21.70;9.43;;;;;;;0.48;67.35;98657.10;128255;1108;23795;-59
2021/01/27 10:54:14;;;;;;;15.55;7.60;;;;;;;0.48;68.09;98641.02;128398;1108;23017;-59
2021/01/27 10:56:42;;;;;;;21.30;9.05;;;;;;;0.46;67.72;98645.77;128187;1108;22958;-59
2021/01/27 10:59:09;;;;;;;23.80;9.90;;;;;;;0.44;68.13;98645.98;128323;1109;24769;-59
2021/01/27 11:01:37;;;;;;;19.10;9.63;;;;;;;0.44;67.92;98645.98;128202;1108;23702;-59
2021/01/27 11:04:05;;;;;;;31.90;15.60;;;;;;;0.40;67.43;98642.11;128345;1109;22897;-59
2021/01/27 11:06:32;;;;;;;37.60;16.75;;;;;;;0.40;67.55;98644.79;126095;1108;27748;-58
2021/01/27 11:09:00;;;;;;;43.83;22.70;;;;;;;0.43;68.45;98646.22;124538;1109;23425;-60
2021/01/27 11:11:27;;;;;;;23.70;11.07;;;;;;;0.27;67.68;98616.22;124183;1109;26405;-58
2021/01/27 11:13:55;;;;;;;28.10;13.67;;;;;;;0.45;67.40;98631.55;124405;1108;23057;-60
2021/01/27 11:16:22;;;;;;;34.50;16.17;;;;;;;0.46;68.02;98640.41;124543;1108;23024;-59
2021/01/27 11:18:50;;;;;;;34.45;15.85;;;;;;;0.45;68.33;98636.09;128283;1108;22831;-59
2021/01/27 11:21:18;;;;;;;35.57;17.57;;;;;;;0.43;68.15;98633.65;128338;1108;22913;-59
2021/01/27 11:23:46;;;;;;;26.93;13.73;;;;;;;0.41;67.66;98632.22;128220;1108;23010;-59
2021/01/27 11:26:19;;;;;;;43.75;18.75;;;;;;;0.41;68.81;98633.04;128335;1108;22985;-58
2021/01/27 11:28:48;;;;;;;43.05;18.40;;;;;;;0.40;67.85;98630.57;128149;1109;22834;-59
2021/01/27 11:31:15;;;;;;;48.67;19.50;;;;;;;0.37;68.49;98629.13;128211;1108;23058;-59
2021/01/27 11:33:46;;;;;;;31.80;13.65;;;;;;;0.37;68.14;98628.31;128268;1109;22884;-60
2021/01/27 11:36:17;;;;;;;39.00;16.90;;;;;;;0.34;67.76;98619.66;128294;1108;22823;-59
2021/01/27 11:38:45;;;;;;;40.60;16.35;;;;;;;0.34;68.22;98633.06;128212;1108;22860;-59
2021/01/27 11:41:13;;;;;;;61.90;23.67;;;;;;;0.37;68.03;98637.17;128349;1108;23756;-59
2021/01/27 11:43:43;;;;;;;33.27;15.33;;;;;;;0.38;68.64;98627.28;128236;1108;23093;-60
2021/01/27 11:46:11;;;;;;;39.23;17.70;;;;;;;0.41;68.98;98632.22;128351;1107;22885;-60
2021/01/27 11:48:41;;;;;;;54.50;23.30;;;;;;;0.43;68.21;98624.79;128226;1109;22987;-59
2021/01/27 11:51:09;;;;;;;46.50;18.03;;;;;;;0.44;68.85;98621.87;128304;1108;22966;-59
2021/01/27 11:53:37;;;;;;;42.30;18.70;;;;;;;0.47;69.03;98620.63;128225;1108;22891;-59